sensor_id;sensor_type;location;lat;lon;timestamp;pressure;altitude;pressure_sealevel;temperature;humidity
54948;BME280;41113;41.882;12.530;2023-02-13T00:00:53;102807.13;;;5.82;61.14
54948;BME280;41113;41.882;12.530;2023-02-13T00:03:19;102803.72;;;5.78;61.56
54948;BME280;41113;41.882;12.530;2023-02-13T00:05:44;102803.88;;;5.74;61.79
54948;BME280;41113;41.882;12.530;2023-02-13T00:08:10;102814.00;;;5.64;63.04
54948;BME280;41113;41.882;12.530;2023-02-13T00:10:35;102810.06;;;5.74;62.30
54948;BME280;41113;41.882;12.530;2023-02-13T00:13:01;102811.81;;;5.75;62.49
54948;BME280;41113;41.882;12.530;2023-02-13T00:15:26;102816.94;;;5.56;63.69
54948;BME280;41113;41.882;12.530;2023-02-13T00:17:52;102817.09;;;5.50;63.62
54948;BME280;41113;41.882;12.530;2023-02-13T00:20:17;102818.09;;;5.48;63.58
54948;BME280;41113;41.882;12.530;2023-02-13T00:22:43;102826.91;;;5.50;63.13
54948;BME280;41113;41.882;12.530;2023-02-13T00:25:08;102819.81;;;5.49;62.82
54948;BME280;41113;41.882;12.530;2023-02-13T00:27:34;102820.84;;;5.45;61.92
54948;BME280;41113;41.882;12.530;2023-02-13T00:29:59;102820.91;;;5.43;61.29
54948;BME280;41113;41.882;12.530;2023-02-13T00:32:25;102821.88;;;5.41;61.16
54948;BME280;41113;41.882;12.530;2023-02-13T00:34:50;102829.97;;;5.38;60.84
54948;BME280;41113;41.882;12.530;2023-02-13T00:37:16;102830.09;;;5.35;61.19
54948;BME280;41113;41.882;12.530;2023-02-13T00:39:41;102835.19;;;5.41;60.91
54948;BME280;41113;41.882;12.530;2023-02-13T00:42:07;102830.19;;;5.31;60.99
54948;BME280;41113;41.882;12.530;2023-02-13T00:44:32;102828.66;;;5.24;60.92
54948;BME280;41113;41.882;12.530;2023-02-13T00:46:58;102828.66;;;5.24;61.06
54948;BME280;41113;41.882;12.530;2023-02-13T00:49:23;102829.56;;;5.23;60.81
54948;BME280;41113;41.882;12.530;2023-02-13T00:51:49;102832.13;;;5.26;60.54
54948;BME280;41113;41.882;12.530;2023-02-13T00:54:14;102834.09;;;5.20;60.71
54948;BME280;41113;41.882;12.530;2023-02-13T00:56:39;102834.19;;;5.17;60.56
54948;BME280;41113;41.882;12.530;2023-02-13T00:59:05;102843.09;;;5.16;60.54
54948;BME280;41113;41.882;12.530;2023-02-13T01:01:30;102835.88;;;5.19;60.03
54948;BME280;41113;41.882;12.530;2023-02-13T01:03:56;102836.75;;;5.20;59.59
54948;BME280;41113;41.882;12.530;2023-02-13T01:06:21;102836.81;;;5.18;58.89
54948;BME280;41113;41.882;12.530;2023-02-13T01:08:46;102838.81;;;5.12;58.83
54948;BME280;41113;41.882;12.530;2023-02-13T01:11:12;102840.78;;;5.05;59.10
54948;BME280;41113;41.882;12.530;2023-02-13T01:13:38;102829.16;;;5.08;59.25
54948;BME280;41113;41.882;12.530;2023-02-13T01:16:03;102829.16;;;5.08;59.29
54948;BME280;41113;41.882;12.530;2023-02-13T01:18:29;102833.53;;;5.10;58.92
54948;BME280;41113;41.882;12.530;2023-02-13T01:20:59;102832.41;;;5.17;58.96
54948;BME280;41113;41.882;12.530;2023-02-13T01:23:28;102830.53;;;5.21;59.02
54948;BME280;41113;41.882;12.530;2023-02-13T01:25:54;102832.56;;;5.13;59.09
54948;BME280;41113;41.882;12.530;2023-02-13T01:28:20;102831.00;;;5.06;59.15
54948;BME280;41113;41.882;12.530;2023-02-13T01:30:52;102832.03;;;5.02;59.04
54948;BME280;41113;41.882;12.530;2023-02-13T01:33:17;102835.56;;;5.02;59.08
54948;BME280;41113;41.882;12.530;2023-02-13T01:35:43;102828.41;;;5.04;58.79
54948;BME280;41113;41.882;12.530;2023-02-13T01:38:08;102831.22;;;4.99;58.47
54948;BME280;41113;41.882;12.530;2023-02-13T01:40:33;102832.28;;;4.94;58.32
54948;BME280;41113;41.882;12.530;2023-02-13T01:42:59;102830.69;;;4.87;58.79
54948;BME280;41113;41.882;12.530;2023-02-13T01:45:29;102824.66;;;4.82;58.44
54948;BME280;41113;41.882;12.530;2023-02-13T01:48:12;102830.06;;;4.79;59.12
54948;BME280;41113;41.882;12.530;2023-02-13T01:53:25;102835.91;;;4.62;60.90
54948;BME280;41113;41.882;12.530;2023-02-13T01:56:05;102840.53;;;4.55;61.91
54948;BME280;41113;41.882;12.530;2023-02-13T01:58:36;102831.81;;;4.50;62.22
54948;BME280;41113;41.882;12.530;2023-02-13T02:01:05;102845.16;;;4.49;61.85
54948;BME280;41113;41.882;12.530;2023-02-13T02:06:13;102839.69;;;4.53;61.56
54948;BME280;41113;41.882;12.530;2023-02-13T02:08:40;102839.53;;;4.59;60.76
54948;BME280;41113;41.882;12.530;2023-02-13T02:11:12;102836.50;;;4.72;60.31
54948;BME280;41113;41.882;12.530;2023-02-13T02:13:40;102841.72;;;4.75;59.87
54948;BME280;41113;41.882;12.530;2023-02-13T02:16:05;102839.78;;;4.80;59.88
54948;BME280;41113;41.882;12.530;2023-02-13T02:18:31;102836.03;;;4.87;59.70
54948;BME280;41113;41.882;12.530;2023-02-13T02:34:43;102826.56;;;4.47;59.20
54948;BME280;41113;41.882;12.530;2023-02-13T02:37:17;102831.81;;;4.50;59.42
54948;BME280;41113;41.882;12.530;2023-02-13T02:51:32;102844.94;;;4.25;60.21
54948;BME280;41113;41.882;12.530;2023-02-13T02:54:13;102853.72;;;4.29;60.00
54948;BME280;41113;41.882;12.530;2023-02-13T02:57:04;102850.88;;;4.35;59.35
54948;BME280;41113;41.882;12.530;2023-02-13T02:59:33;102845.66;;;4.32;58.79
54948;BME280;41113;41.882;12.530;2023-02-13T03:02:20;102856.50;;;4.24;58.20
54948;BME280;41113;41.882;12.530;2023-02-13T03:05:16;102851.75;;;4.35;58.15
54948;BME280;41113;41.882;12.530;2023-02-13T03:08:03;102858.69;;;4.41;57.53
54948;BME280;41113;41.882;12.530;2023-02-13T03:10:31;102869.41;;;4.38;57.92
54948;BME280;41113;41.882;12.530;2023-02-13T03:13:32;102866.00;;;4.33;57.54
54948;BME280;41113;41.882;12.530;2023-02-13T03:15:59;102871.59;;;4.24;57.94
54948;BME280;41113;41.882;12.530;2023-02-13T03:18:49;102868.03;;;4.25;57.93
54948;BME280;41113;41.882;12.530;2023-02-13T03:24:45;102872.53;;;4.21;57.16
54948;BME280;41113;41.882;12.530;2023-02-13T03:30:56;102873.16;;;4.31;57.35
54948;BME280;41113;41.882;12.530;2023-02-13T03:42:41;102880.91;;;4.38;57.01
54948;BME280;41113;41.882;12.530;2023-02-13T03:45:13;102883.44;;;4.43;57.73
54948;BME280;41113;41.882;12.530;2023-02-13T03:48:00;102884.28;;;4.45;57.30
54948;BME280;41113;41.882;12.530;2023-02-13T03:50:36;102887.94;;;4.41;57.26
54948;BME280;41113;41.882;12.530;2023-02-13T03:53:07;102885.28;;;4.41;57.09
54948;BME280;41113;41.882;12.530;2023-02-13T03:55:37;102883.53;;;4.40;57.20
54948;BME280;41113;41.882;12.530;2023-02-13T03:58:45;102890.69;;;4.38;57.64
54948;BME280;41113;41.882;12.530;2023-02-13T04:01:33;102896.09;;;4.35;57.13
54948;BME280;41113;41.882;12.530;2023-02-13T04:04:04;102901.16;;;4.44;57.00
54948;BME280;41113;41.882;12.530;2023-02-13T04:06:37;102894.00;;;4.46;56.82
54948;BME280;41113;41.882;12.530;2023-02-13T04:09:02;102900.41;;;4.39;56.50
54948;BME280;41113;41.882;12.530;2023-02-13T04:11:39;102897.06;;;4.32;56.97
54948;BME280;41113;41.882;12.530;2023-02-13T04:14:17;102901.50;;;4.32;56.99
54948;BME280;41113;41.882;12.530;2023-02-13T04:17:05;102900.72;;;4.28;56.84
54948;BME280;41113;41.882;12.530;2023-02-13T04:19:32;102893.69;;;4.26;57.31
54948;BME280;41113;41.882;12.530;2023-02-13T04:21:59;102898.19;;;4.24;57.48
54948;BME280;41113;41.882;12.530;2023-02-13T04:24:26;102904.38;;;4.24;57.74
54948;BME280;41113;41.882;12.530;2023-02-13T04:26:52;102897.47;;;4.17;58.15
54948;BME280;41113;41.882;12.530;2023-02-13T04:29:22;102891.34;;;4.14;58.27
54948;BME280;41113;41.882;12.530;2023-02-13T04:31:48;102892.97;;;4.19;58.48
54948;BME280;41113;41.882;12.530;2023-02-13T04:34:13;102895.53;;;4.22;58.08
54948;BME280;41113;41.882;12.530;2023-02-13T04:36:38;102899.97;;;4.23;58.39
54948;BME280;41113;41.882;12.530;2023-02-13T04:39:04;102899.03;;;4.26;58.13
54948;BME280;41113;41.882;12.530;2023-02-13T04:41:30;102894.66;;;4.22;57.97
54948;BME280;41113;41.882;12.530;2023-02-13T04:43:55;102894.66;;;4.22;57.91
54948;BME280;41113;41.882;12.530;2023-02-13T04:46:20;102893.19;;;4.12;58.64
54948;BME280;41113;41.882;12.530;2023-02-13T04:48:46;102894.88;;;4.14;58.61
54948;BME280;41113;41.882;12.530;2023-02-13T04:51:11;102897.63;;;4.11;58.71
54948;BME280;41113;41.882;12.530;2023-02-13T04:53:37;102904.03;;;4.04;58.70
54948;BME280;41113;41.882;12.530;2023-02-13T04:56:02;102910.22;;;4.04;59.46
54948;BME280;41113;41.882;12.530;2023-02-13T04:58:28;102911.97;;;4.05;59.14
54948;BME280;41113;41.882;12.530;2023-02-13T05:00:53;102918.22;;;4.03;60.09
54948;BME280;41113;41.882;12.530;2023-02-13T05:03:18;102909.38;;;4.02;59.50
54948;BME280;41113;41.882;12.530;2023-02-13T05:05:44;102905.81;;;4.03;59.44
54948;BME280;41113;41.882;12.530;2023-02-13T05:08:09;102920.00;;;4.02;59.39
54948;BME280;41113;41.882;12.530;2023-02-13T05:10:35;102914.75;;;4.01;59.27
54948;BME280;41113;41.882;12.530;2023-02-13T05:13:00;102920.88;;;4.03;59.14
54948;BME280;41113;41.882;12.530;2023-02-13T05:15:26;102920.84;;;4.04;59.10
54948;BME280;41113;41.882;12.530;2023-02-13T05:17:51;102921.94;;;3.97;59.01
54948;BME280;41113;41.882;12.530;2023-02-13T05:20:17;102919.25;;;3.97;59.28
54948;BME280;41113;41.882;12.530;2023-02-13T05:22:52;102921.19;;;3.92;59.59
54948;BME280;41113;41.882;12.530;2023-02-13T05:25:38;102924.75;;;3.91;59.53
54948;BME280;41113;41.882;12.530;2023-02-13T05:28:04;102927.44;;;3.88;59.47
54948;BME280;41113;41.882;12.530;2023-02-13T05:30:50;102930.09;;;3.88;60.14
54948;BME280;41113;41.882;12.530;2023-02-13T05:33:16;102930.09;;;3.88;60.10
54948;BME280;41113;41.882;12.530;2023-02-13T05:35:41;102934.50;;;3.89;59.71
54948;BME280;41113;41.882;12.530;2023-02-13T05:38:06;102933.75;;;3.84;60.01
54948;BME280;41113;41.882;12.530;2023-02-13T05:40:32;102931.03;;;3.87;60.21
54948;BME280;41113;41.882;12.530;2023-02-13T05:42:57;102938.09;;;3.88;60.08
54948;BME280;41113;41.882;12.530;2023-02-13T05:45:22;102934.75;;;3.80;60.71
54948;BME280;41113;41.882;12.530;2023-02-13T05:47:48;102937.44;;;3.79;61.35
54948;BME280;41113;41.882;12.530;2023-02-13T05:50:13;102943.88;;;3.70;61.42
54948;BME280;41113;41.882;12.530;2023-02-13T05:52:38;102945.72;;;3.66;61.72
54948;BME280;41113;41.882;12.530;2023-02-13T05:55:04;102943.06;;;3.66;62.32
54948;BME280;41113;41.882;12.530;2023-02-13T05:57:30;102951.16;;;3.62;62.81
54948;BME280;41113;41.882;12.530;2023-02-13T05:59:55;102952.97;;;3.60;63.05
54948;BME280;41113;41.882;12.530;2023-02-13T06:02:20;102954.66;;;3.64;63.84
54948;BME280;41113;41.882;12.530;2023-02-13T06:04:46;102954.50;;;3.70;63.21
54948;BME280;41113;41.882;12.530;2023-02-13T06:07:11;102957.19;;;3.68;63.33
54948;BME280;41113;41.882;12.530;2023-02-13T06:09:37;102964.28;;;3.68;63.97
54948;BME280;41113;41.882;12.530;2023-02-13T06:12:02;102963.53;;;3.63;64.43
54948;BME280;41113;41.882;12.530;2023-02-13T06:14:28;102975.00;;;3.65;64.07
54948;BME280;41113;41.882;12.530;2023-02-13T06:16:53;102974.97;;;3.66;64.23
54948;BME280;41113;41.882;12.530;2023-02-13T06:19:18;102977.66;;;3.65;63.46
54948;BME280;41113;41.882;12.530;2023-02-13T06:21:44;102985.59;;;3.66;64.06
54948;BME280;41113;41.882;12.530;2023-02-13T06:24:09;102983.69;;;3.71;64.01
54948;BME280;41113;41.882;12.530;2023-02-13T06:26:34;102991.78;;;3.67;64.04
54948;BME280;41113;41.882;12.530;2023-02-13T06:29:00;102993.59;;;3.65;64.77
54948;BME280;41113;41.882;12.530;2023-02-13T06:31:25;102998.84;;;3.68;63.96
54948;BME280;41113;41.882;12.530;2023-02-13T06:33:51;103013.19;;;3.61;64.51
54948;BME280;41113;41.882;12.530;2023-02-13T06:36:16;103012.38;;;3.56;64.73
54948;BME280;41113;41.882;12.530;2023-02-13T06:38:41;103014.19;;;3.54;65.41
54948;BME280;41113;41.882;12.530;2023-02-13T06:41:07;103016.00;;;3.52;65.25
54948;BME280;41113;41.882;12.530;2023-02-13T06:43:34;103015.09;;;3.53;65.16
54948;BME280;41113;41.882;12.530;2023-02-13T06:46:04;103017.66;;;3.59;64.65
54948;BME280;41113;41.882;12.530;2023-02-13T06:48:29;103012.34;;;3.57;64.72
54948;BME280;41113;41.882;12.530;2023-02-13T06:50:54;103017.47;;;3.66;65.14
54948;BME280;41113;41.882;12.530;2023-02-13T06:53:20;103027.22;;;3.66;64.80
54948;BME280;41113;41.882;12.530;2023-02-13T06:55:50;103016.44;;;3.72;64.44
54948;BME280;41113;41.882;12.530;2023-02-13T06:58:16;103026.09;;;3.76;64.60
54948;BME280;41113;41.882;12.530;2023-02-13T07:00:41;103033.78;;;3.88;64.01
54948;BME280;41113;41.882;12.530;2023-02-13T07:03:07;103028.56;;;3.84;63.20
54948;BME280;41113;41.882;12.530;2023-02-13T07:05:34;103039.28;;;3.81;63.41
54948;BME280;41113;41.882;12.530;2023-02-13T07:07:59;103038.31;;;3.83;63.95
54948;BME280;41113;41.882;12.530;2023-02-13T07:10:25;103040.13;;;3.83;63.78
54948;BME280;41113;41.882;12.530;2023-02-13T07:12:50;103049.91;;;3.81;63.55
54948;BME280;41113;41.882;12.530;2023-02-13T07:15:15;103044.56;;;3.82;63.50
54948;BME280;41113;41.882;12.530;2023-02-13T07:17:41;103050.03;;;3.76;63.54
54948;BME280;41113;41.882;12.530;2023-02-13T07:20:07;103054.38;;;3.79;63.42
54948;BME280;41113;41.882;12.530;2023-02-13T07:22:32;103045.34;;;3.86;62.82
54948;BME280;41113;41.882;12.530;2023-02-13T07:24:58;103041.72;;;3.90;62.99
54948;BME280;41113;41.882;12.530;2023-02-13T07:27:24;103041.41;;;4.03;62.34
54948;BME280;41113;41.882;12.530;2023-02-13T07:29:50;103045.66;;;4.11;62.12
54948;BME280;41113;41.882;12.530;2023-02-13T07:32:15;103043.59;;;4.23;62.37
54948;BME280;41113;41.882;12.530;2023-02-13T07:34:41;103050.22;;;4.41;61.85
54948;BME280;41113;41.882;12.530;2023-02-13T07:37:06;103046.31;;;4.54;61.32
54948;BME280;41113;41.882;12.530;2023-02-13T07:39:31;103045.41;;;4.57;61.24
54948;BME280;41113;41.882;12.530;2023-02-13T07:41:57;103055.06;;;4.61;61.62
54948;BME280;41113;41.882;12.530;2023-02-13T07:44:22;103054.59;;;4.78;60.61
54948;BME280;41113;41.882;12.530;2023-02-13T07:46:48;103054.28;;;4.90;60.77
54948;BME280;41113;41.882;12.530;2023-02-13T07:49:13;103055.09;;;4.92;60.93
54948;BME280;41113;41.882;12.530;2023-02-13T07:51:39;103052.31;;;4.96;61.01
54948;BME280;41113;41.882;12.530;2023-02-13T07:54:04;103056.75;;;4.96;61.43
54948;BME280;41113;41.882;12.530;2023-02-13T07:56:29;103059.44;;;4.96;61.38
54948;BME280;41113;41.882;12.530;2023-02-13T07:58:55;103057.34;;;5.07;60.97
54948;BME280;41113;41.882;12.530;2023-02-13T08:01:20;103064.97;;;5.19;61.03
54948;BME280;41113;41.882;12.530;2023-02-13T08:03:49;103069.06;;;5.32;60.34
54948;BME280;41113;41.882;12.530;2023-02-13T08:06:15;103066.94;;;5.44;60.51
54948;BME280;41113;41.882;12.530;2023-02-13T08:08:41;103069.66;;;5.42;61.01
54948;BME280;41113;41.882;12.530;2023-02-13T08:11:18;103070.56;;;5.41;61.04
54948;BME280;41113;41.882;12.530;2023-02-13T08:14:05;103079.09;;;5.54;60.88
54948;BME280;41113;41.882;12.530;2023-02-13T08:16:30;103073.56;;;5.60;61.07
54948;BME280;41113;41.882;12.530;2023-02-13T08:18:56;103070.91;;;5.60;60.63
54948;BME280;41113;41.882;12.530;2023-02-13T08:21:21;103073.19;;;5.72;60.29
54948;BME280;41113;41.882;12.530;2023-02-13T08:23:46;103078.63;;;5.69;60.64
54948;BME280;41113;41.882;12.530;2023-02-13T08:26:12;103069.75;;;5.69;60.36
54948;BME280;41113;41.882;12.530;2023-02-13T08:28:38;103076.59;;;5.77;60.69
54948;BME280;41113;41.882;12.530;2023-02-13T08:31:09;103066.50;;;5.88;60.22
54948;BME280;41113;41.882;12.530;2023-02-13T08:33:35;103067.91;;;6.00;60.31
54948;BME280;41113;41.882;12.530;2023-02-13T08:36:02;103074.81;;;6.07;59.81
54948;BME280;41113;41.882;12.530;2023-02-13T08:38:28;103084.28;;;6.16;60.04
54948;BME280;41113;41.882;12.530;2023-02-13T08:40:55;103075.38;;;6.17;59.88
54948;BME280;41113;41.882;12.530;2023-02-13T08:43:21;103078.63;;;6.27;59.42
54948;BME280;41113;41.882;12.530;2023-02-13T08:45:46;103078.28;;;6.37;58.94
54948;BME280;41113;41.882;12.530;2023-02-13T08:48:11;103079.81;;;6.44;58.91
54948;BME280;41113;41.882;12.530;2023-02-13T08:50:37;103082.69;;;6.65;58.72
54948;BME280;41113;41.882;12.530;2023-02-13T08:53:02;103085.97;;;6.73;58.06
54948;BME280;41113;41.882;12.530;2023-02-13T08:55:28;103082.38;;;6.74;57.77
54948;BME280;41113;41.882;12.530;2023-02-13T08:57:58;103083.81;;;6.84;57.52
54948;BME280;41113;41.882;12.530;2023-02-13T09:00:24;103085.22;;;6.94;57.33
54948;BME280;41113;41.882;12.530;2023-02-13T09:02:49;103092.91;;;7.03;56.95
54948;BME280;41113;41.882;12.530;2023-02-13T09:05:14;103090.00;;;7.09;56.31
54948;BME280;41113;41.882;12.530;2023-02-13T09:07:40;103088.88;;;7.16;56.26
54948;BME280;41113;41.882;12.530;2023-02-13T09:10:06;103090.28;;;7.27;56.58
54948;BME280;41113;41.882;12.530;2023-02-13T09:12:31;103093.31;;;7.41;55.95
54948;BME280;41113;41.882;12.530;2023-02-13T09:14:57;103094.78;;;7.49;55.90
54948;BME280;41113;41.882;12.530;2023-02-13T09:17:22;103099.78;;;7.59;56.13
54948;BME280;41113;41.882;12.530;2023-02-13T09:19:48;103093.97;;;7.71;55.52
54948;BME280;41113;41.882;12.530;2023-02-13T09:22:13;103103.34;;;7.83;55.23
54948;BME280;41113;41.882;12.530;2023-02-13T09:24:41;103097.25;;;8.01;55.21
54948;BME280;41113;41.882;12.530;2023-02-13T09:27:06;103091.19;;;8.19;54.77
54948;BME280;41113;41.882;12.530;2023-02-13T09:29:33;103089.72;;;8.32;54.23
54948;BME280;41113;41.882;12.530;2023-02-13T09:31:59;103084.75;;;8.45;54.35
54948;BME280;41113;41.882;12.530;2023-02-13T09:34:24;103080.59;;;8.60;52.82
54948;BME280;41113;41.882;12.530;2023-02-13T09:36:53;103085.81;;;8.63;51.90
54948;BME280;41113;41.882;12.530;2023-02-13T09:39:18;103077.06;;;8.80;52.13
54948;BME280;41113;41.882;12.530;2023-02-13T09:41:46;103079.00;;;8.96;52.30
54948;BME280;41113;41.882;12.530;2023-02-13T09:44:18;103079.72;;;9.20;52.05
54948;BME280;41113;41.882;12.530;2023-02-13T09:47:03;103073.19;;;9.46;51.65
54948;BME280;41113;41.882;12.530;2023-02-13T09:49:33;103080.56;;;9.41;50.15
54948;BME280;41113;41.882;12.530;2023-02-13T09:52:00;103083.38;;;9.38;49.71
54948;BME280;41113;41.882;12.530;2023-02-13T09:54:26;103079.81;;;9.38;49.96
54948;BME280;41113;41.882;12.530;2023-02-13T09:57:00;103086.97;;;9.57;50.98
54948;BME280;41113;41.882;12.530;2023-02-13T09:59:49;103079.59;;;9.81;50.01
54948;BME280;41113;41.882;12.530;2023-02-13T10:08:17;103071.59;;;9.98;48.56
54948;BME280;41113;41.882;12.530;2023-02-13T10:11:00;103073.63;;;10.12;49.79
54948;BME280;41113;41.882;12.530;2023-02-13T10:14:10;103064.88;;;10.07;46.82
54948;BME280;41113;41.882;12.530;2023-02-13T10:16:41;103070.50;;;10.21;49.19
54948;BME280;41113;41.882;12.530;2023-02-13T10:22:14;103060.25;;;10.29;47.71
54948;BME280;41113;41.882;12.530;2023-02-13T10:24:50;103063.28;;;10.41;48.68
54948;BME280;41113;41.882;12.530;2023-02-13T10:30:04;103057.28;;;10.53;47.00
54948;BME280;41113;41.882;12.530;2023-02-13T10:32:57;103054.19;;;10.60;45.89
54948;BME280;41113;41.882;12.530;2023-02-13T10:35:44;103051.28;;;10.65;47.79
54948;BME280;41113;41.882;12.530;2023-02-13T10:38:17;103047.63;;;10.66;46.61
54948;BME280;41113;41.882;12.530;2023-02-13T10:41:03;103040.94;;;10.75;47.58
54948;BME280;41113;41.882;12.530;2023-02-13T10:43:38;103041.16;;;10.87;47.75
54948;BME280;41113;41.882;12.530;2023-02-13T10:46:21;103029.56;;;11.03;47.45
54948;BME280;41113;41.882;12.530;2023-02-13T10:49:08;103031.38;;;11.19;47.42
54948;BME280;41113;41.882;12.530;2023-02-13T10:52:10;103021.16;;;11.26;46.99
54948;BME280;41113;41.882;12.530;2023-02-13T10:55:01;103018.28;;;11.29;46.67
54948;BME280;41113;41.882;12.530;2023-02-13T11:03:03;103019.28;;;11.44;47.68
54948;BME280;41113;41.882;12.530;2023-02-13T11:05:36;103017.72;;;11.40;47.20
54948;BME280;41113;41.882;12.530;2023-02-13T11:08:03;103007.91;;;11.54;47.78
54948;BME280;41113;41.882;12.530;2023-02-13T11:10:39;102997.94;;;11.57;46.86
54948;BME280;41113;41.882;12.530;2023-02-13T11:13:18;103003.13;;;11.60;47.04
54948;BME280;41113;41.882;12.530;2023-02-13T11:18:21;102995.16;;;11.74;47.96
54948;BME280;41113;41.882;12.530;2023-02-13T11:21:01;102998.81;;;11.73;47.86
54948;BME280;41113;41.882;12.530;2023-02-13T11:25:59;102987.19;;;11.72;48.13
54948;BME280;41113;41.882;12.530;2023-02-13T11:28:32;102987.72;;;11.79;48.25
54948;BME280;41113;41.882;12.530;2023-02-13T11:33:46;102974.50;;;11.90;48.29
54948;BME280;41113;41.882;12.530;2023-02-13T11:36:32;102971.81;;;11.90;48.04
54948;BME280;41113;41.882;12.530;2023-02-13T11:39:02;102969.63;;;11.97;48.26
54948;BME280;41113;41.882;12.530;2023-02-13T11:41:30;102977.59;;;11.98;48.18
54948;BME280;41113;41.882;12.530;2023-02-13T11:43:58;102969.81;;;11.94;48.53
54948;BME280;41113;41.882;12.530;2023-02-13T11:46:28;102971.72;;;11.92;48.77
54948;BME280;41113;41.882;12.530;2023-02-13T11:49:05;102974.41;;;11.92;48.72
54948;BME280;41113;41.882;12.530;2023-02-13T11:57:02;102964.78;;;12.03;48.33
54948;BME280;41113;41.882;12.530;2023-02-13T11:59:32;102959.03;;;11.94;48.70
54948;BME280;41113;41.882;12.530;2023-02-13T12:04:38;102954.69;;;11.91;49.02
54948;BME280;41113;41.882;12.530;2023-02-13T12:07:28;102955.75;;;11.89;49.13
54948;BME280;41113;41.882;12.530;2023-02-13T12:09:59;102952.41;;;11.99;48.82
54948;BME280;41113;41.882;12.530;2023-02-13T12:12:46;102944.97;;;12.04;48.67
54948;BME280;41113;41.882;12.530;2023-02-13T12:15:20;102939.63;;;12.03;48.90
54948;BME280;41113;41.882;12.530;2023-02-13T12:17:53;102928.84;;;12.03;49.11
54948;BME280;41113;41.882;12.530;2023-02-13T12:20:21;102929.47;;;12.08;49.03
54948;BME280;41113;41.882;12.530;2023-02-13T12:23:06;102918.34;;;12.14;49.02
54948;BME280;41113;41.882;12.530;2023-02-13T12:25:59;102913.81;;;12.14;49.06
54948;BME280;41113;41.882;12.530;2023-02-13T12:28:57;102916.88;;;12.08;48.95
54948;BME280;41113;41.882;12.530;2023-02-13T12:32:00;102904.56;;;12.04;49.31
54948;BME280;41113;41.882;12.530;2023-02-13T12:46:22;102897.09;;;12.24;47.11
54948;BME280;41113;41.882;12.530;2023-02-13T12:51:55;102887.09;;;12.26;48.00
54948;BME280;41113;41.882;12.530;2023-02-13T13:05:50;102885.72;;;12.04;49.20
54948;BME280;41113;41.882;12.530;2023-02-13T13:11:21;102867.28;;;11.97;49.49
54948;BME280;41113;41.882;12.530;2023-02-13T13:14:31;102881.03;;;11.92;48.89
54948;BME280;41113;41.882;12.530;2023-02-13T13:24:53;102869.94;;;12.12;47.35
54948;BME280;41113;41.882;12.530;2023-02-13T13:27:25;102861.88;;;12.12;47.46
54948;BME280;41113;41.882;12.530;2023-02-13T13:30:12;102870.63;;;12.16;47.70
54948;BME280;41113;41.882;12.530;2023-02-13T13:32:42;102865.72;;;12.23;48.48
54948;BME280;41113;41.882;12.530;2023-02-13T13:35:14;102866.50;;;12.25;48.13
54948;BME280;41113;41.882;12.530;2023-02-13T13:37:48;102868.41;;;12.23;49.09
54948;BME280;41113;41.882;12.530;2023-02-13T13:43:15;102874.47;;;12.26;49.46
54948;BME280;41113;41.882;12.530;2023-02-13T13:45:57;102869.66;;;12.31;49.50
54948;BME280;41113;41.882;12.530;2023-02-13T13:51:13;102871.31;;;12.34;50.64
54948;BME280;41113;41.882;12.530;2023-02-13T13:59:18;102865.50;;;12.11;51.42
54948;BME280;41113;41.882;12.530;2023-02-13T14:01:44;102868.06;;;11.99;52.90
54948;BME280;41113;41.882;12.530;2023-02-13T14:11:51;102868.34;;;11.94;52.77
54948;BME280;41113;41.882;12.530;2023-02-13T14:16:53;102871.44;;;12.02;53.83
54948;BME280;41113;41.882;12.530;2023-02-13T14:19:32;102871.28;;;12.05;53.21
54948;BME280;41113;41.882;12.530;2023-02-13T14:22:32;102870.84;;;11.97;54.40
54948;BME280;41113;41.882;12.530;2023-02-13T14:25:02;102870.41;;;12.05;54.23
54948;BME280;41113;41.882;12.530;2023-02-13T14:27:35;102876.31;;;11.96;54.90
54948;BME280;41113;41.882;12.530;2023-02-13T14:30:25;102876.78;;;11.88;55.24
54948;BME280;41113;41.882;12.530;2023-02-13T14:32:51;102870.44;;;11.89;54.47
54948;BME280;41113;41.882;12.530;2023-02-13T14:35:24;102875.47;;;11.95;55.04
54948;BME280;41113;41.882;12.530;2023-02-13T14:37:56;102875.47;;;11.95;54.66
54948;BME280;41113;41.882;12.530;2023-02-13T14:40:30;102872.75;;;11.95;54.93
54948;BME280;41113;41.882;12.530;2023-02-13T14:45:28;102874.97;;;11.89;55.29
54948;BME280;41113;41.882;12.530;2023-02-13T14:47:57;102880.44;;;11.87;54.41
54948;BME280;41113;41.882;12.530;2023-02-13T14:50:33;102878.81;;;11.84;55.09
54948;BME280;41113;41.882;12.530;2023-02-13T14:53:04;102881.59;;;11.83;56.13
54948;BME280;41113;41.882;12.530;2023-02-13T14:55:40;102879.84;;;11.82;56.44
54948;BME280;41113;41.882;12.530;2023-02-13T14:58:15;102877.34;;;11.79;55.60
54948;BME280;41113;41.882;12.530;2023-02-13T15:00:59;102881.31;;;11.72;56.12
54948;BME280;41113;41.882;12.530;2023-02-13T15:03:43;102882.28;;;11.71;56.65
54948;BME280;41113;41.882;12.530;2023-02-13T15:08:50;102873.09;;;11.59;56.07
54948;BME280;41113;41.882;12.530;2023-02-13T15:11:37;102880.88;;;11.64;57.29
54948;BME280;41113;41.882;12.530;2023-02-13T15:16:45;102873.94;;;11.60;57.08
54948;BME280;41113;41.882;12.530;2023-02-13T15:19:15;102879.50;;;11.57;56.92
54948;BME280;41113;41.882;12.530;2023-02-13T15:21:50;102879.88;;;11.50;57.98
54948;BME280;41113;41.882;12.530;2023-02-13T15:24:18;102886.56;;;11.43;57.68
54948;BME280;41113;41.882;12.530;2023-02-13T15:26:49;102882.16;;;11.42;57.45
54948;BME280;41113;41.882;12.530;2023-02-13T15:29:17;102892.72;;;11.45;57.26
54948;BME280;41113;41.882;12.530;2023-02-13T15:31:43;102887.34;;;11.45;57.47